< < Back
Terminal Aerodrome Forecast


Current Version              Previous Versions:   1  2  3  4  5  6  7  8  9  

Terminal Aerodrome Forecast

816
FTUS44 KBMX 301625 AAB
TAFTCL
TAF AMD
KTCL 301625Z 3016/3112 09004KT 4SM RA BR BKN025 BKN080
     FM302000 04008KT P6SM -SHRA BKN035 OVC050
     FM302300 VRB03KT P6SM BKN050=

Latest METAR

809
SAUS70 KWBC 302200 RRE
MTRTCL
METAR KTCL 302153Z 04008KT 10SM CLR 27/21 A3004 RMK AO2 SLP168
T02670206


USA.gov is the U.S. government's official web portal to all federal, state and local government web resources and services.